Terminal Aerodrome Forecast
Issued by NWS Springfield, MO

Home | Current Version | Previous Version | Text Only | Print | Product List | Glossary On
Versions: 1 2 3 4 5 6 7 8 9 10 11 12 13 14 15 16 17 18 19 20
000
FTUS43 KSGF 311600 AAC
TAFSGF
TAF AMD
KSGF 311609Z 3116/0112 VRB05KT 6SM HZ OVC008
     FM311700 34005KT P6SM BKN015
     FM312000 35006KT P6SM FEW015 SCT200
     FM010000 VRB04KT P6SM SKC
     FM010600 14006KT P6SM SKC=

USA.gov is the U.S. government's official web portal to all federal, state and local government web resources and services.